Egilsstadir, Iceland
Current Conditions -  °F | °C
As of 12:00 PM on Thursday 29 Jan 2015 (Local Time) from BIEG Reporting Station
Moderate Snow Moderate Snow  
Wind Chill: 17°   Ceiling: 500
Heat Index: 32°   Visibility: 0.43mi
Dew Point: 32°   Wind: 33mph
Humidity: 100%   Direction: 10°N
Pressure: 29.26"   Gusts: 45mph
Location:  65.27°N, 14.39°W
Report Text: BIEG 291200Z 01029G39KT 0700 R04/0900 SN BLSN BKN005OVC008 00/00 Q0991 R04/790130
Loading
Personal Weather Stations






























Interactive Weather Map New forecast layout! Learn more

10-Day Weather Forecast

Advertisements
Track Severe Weather on mobile